createdAt,value
2018-06-17T00:01:10.501Z,93367.98
2018-06-17T00:03:39.337Z,93373.04
2018-06-17T00:06:08.165Z,93372.59
2018-06-17T00:08:37.097Z,93371.84
2018-06-17T00:11:05.975Z,93368.88
2018-06-17T00:13:34.803Z,93356.34
2018-06-17T00:16:03.631Z,93359.31
2018-06-17T00:18:32.416Z,93354.70
2018-06-17T00:21:01.310Z,93348.86
2018-06-17T00:23:30.511Z,93349.20
2018-06-17T00:25:59.316Z,93351.02
2018-06-17T00:28:28.117Z,93354.36
2018-06-17T00:30:56.952Z,93357.97
2018-06-17T00:33:25.775Z,93353.91
2018-06-17T00:35:54.571Z,93355.27
2018-06-17T00:38:23.380Z,93356.59
2018-06-17T00:40:52.167Z,93356.25
2018-06-17T00:43:20.934Z,93353.34
2018-06-17T00:45:49.751Z,93345.42
2018-06-17T00:48:18.550Z,93340.92
2018-06-17T00:50:47.321Z,93338.55
2018-06-17T00:53:16.275Z,93340.80
2018-06-17T00:55:45.101Z,93337.11
2018-06-17T00:58:13.903Z,93333.49
2018-06-17T01:00:42.893Z,93340.31
2018-06-17T01:03:11.715Z,93348.87
2018-06-17T01:05:40.472Z,93344.64
2018-06-17T01:08:09.264Z,93353.38
2018-06-17T01:10:38.076Z,93355.28
2018-06-17T01:13:06.874Z,93348.08
2018-06-17T01:15:35.825Z,93350.23
2018-06-17T01:18:04.602Z,93353.58
2018-06-17T01:20:33.395Z,93349.34
2018-06-17T01:23:02.388Z,93353.64
2018-06-17T01:25:31.160Z,93346.61
2018-06-17T01:27:59.914Z,93346.61
2018-06-17T01:30:28.766Z,93350.77
2018-06-17T01:32:57.536Z,93349.41
2018-06-17T01:35:26.324Z,93342.56
2018-06-17T01:37:55.250Z,93337.34
2018-06-17T01:40:24.121Z,93334.75
2018-06-17T01:42:52.878Z,93325.54
2018-06-17T01:45:21.749Z,93315.05
2018-06-17T01:47:50.542Z,93318.50
2018-06-17T01:50:19.291Z,93318.34
2018-06-17T01:52:48.101Z,93330.59
2018-06-17T01:55:16.921Z,93330.14
2018-06-17T01:57:45.704Z,93336.52
2018-06-17T02:00:14.807Z,93334.92
2018-06-17T02:02:43.666Z,93331.30
2018-06-17T02:05:17.441Z,93335.18
2018-06-17T02:07:51.287Z,93335.72
2018-06-17T02:10:25.195Z,93345.00
2018-06-17T02:12:53.994Z,93344.72
2018-06-17T02:15:22.782Z,93353.17
2018-06-17T02:17:51.761Z,93351.83
2018-06-17T02:20:20.528Z,93354.34
2018-06-17T02:22:49.326Z,93356.15
2018-06-17T02:25:18.492Z,93355.33
2018-06-17T02:27:47.324Z,93353.25
2018-06-17T02:30:16.091Z,93345.75
2018-06-17T02:32:44.940Z,93356.84
2018-06-17T02:35:13.687Z,93364.07
2018-06-17T02:37:42.446Z,93362.09
2018-06-17T02:40:11.449Z,93356.22
2018-06-17T02:42:40.222Z,93350.45
2018-06-17T02:45:14.427Z,93351.45
2018-06-17T02:47:48.272Z,93350.98
2018-06-17T02:50:22.244Z,93353.98
2018-06-17T02:52:56.167Z,93354.89
2018-06-17T02:55:24.978Z,93351.45
2018-06-17T02:57:53.719Z,93350.94
2018-06-17T03:00:22.505Z,93355.80
2018-06-17T03:02:51.303Z,93353.83
2018-06-17T03:05:21.396Z,93352.22
2018-06-17T03:07:50.192Z,93355.39
2018-06-17T03:10:19.186Z,93354.52
2018-06-17T03:12:48.031Z,93350.72
2018-06-17T03:15:16.817Z,93360.39
2018-06-17T03:17:45.602Z,93364.92
2018-06-17T03:20:14.333Z,93366.27
2018-06-17T03:22:43.104Z,93358.77
2018-06-17T03:25:17.272Z,93359.56
2018-06-17T03:27:51.088Z,93362.31
2018-06-17T03:30:25.110Z,93355.33
2018-06-17T03:32:58.906Z,93358.59
2018-06-17T03:35:32.972Z,93356.20
2018-06-17T03:38:01.724Z,93354.50
2018-06-17T03:40:30.490Z,93347.16
2018-06-17T03:42:59.475Z,93344.91
2018-06-17T03:45:28.239Z,93347.58
2018-06-17T03:47:57.008Z,93343.50
2018-06-17T03:50:26.104Z,93330.89
2018-06-17T03:52:54.867Z,93334.42
2018-06-17T03:55:23.650Z,93328.33
2018-06-17T03:57:52.588Z,93324.36
2018-06-17T04:00:21.390Z,93328.19
2018-06-17T04:02:50.157Z,93324.27
2018-06-17T04:05:24.327Z,93322.14
2018-06-17T04:07:53.097Z,93318.38
2018-06-17T04:10:22.046Z,93322.88
2018-06-17T04:12:50.929Z,93321.75
2018-06-17T04:15:19.793Z,93318.58
2018-06-17T04:17:48.584Z,93316.51
2018-06-17T04:20:17.538Z,93323.92
2018-06-17T04:22:46.290Z,93328.94
2018-06-17T04:25:15.128Z,93316.89
2018-06-17T04:27:44.300Z,93318.63
2018-06-17T04:30:13.067Z,93317.85
2018-06-17T04:32:41.987Z,93317.58
2018-06-17T04:35:10.783Z,93315.97
2018-06-17T04:37:39.557Z,93314.39
2018-06-17T04:40:08.393Z,93317.08
2018-06-17T04:42:37.352Z,93312.56
2018-06-17T04:45:06.140Z,93309.24
2018-06-17T04:47:34.968Z,93308.44
2018-06-17T04:50:03.892Z,93304.86
2018-06-17T04:52:32.673Z,93306.36
2018-06-17T04:55:01.508Z,93304.84
2018-06-17T04:57:30.474Z,93301.22
2018-06-17T04:59:59.283Z,93308.81
2018-06-17T05:02:28.088Z,93304.59
2018-06-17T05:04:56.940Z,93306.38
2018-06-17T05:07:25.720Z,93307.05
2018-06-17T05:09:54.560Z,93309.45
2018-06-17T05:12:23.375Z,93313.88
2018-06-17T05:14:52.146Z,93312.88
2018-06-17T05:17:20.951Z,93312.74
2018-06-17T05:19:49.796Z,93309.66
2018-06-17T05:22:18.632Z,93319.63
2018-06-17T05:24:47.439Z,93324.17
2018-06-17T05:27:16.388Z,93315.08
2018-06-17T05:29:45.218Z,93327.11
2018-06-17T05:32:13.976Z,93327.77
2018-06-17T05:34:42.778Z,93335.61
2018-06-17T05:37:11.650Z,93346.27
2018-06-17T05:39:40.460Z,93345.66
2018-06-17T05:42:09.291Z,93342.86
2018-06-17T05:44:38.162Z,93352.50
2018-06-17T05:47:06.936Z,93359.61
2018-06-17T05:49:36.069Z,93362.23
2018-06-17T05:52:04.892Z,93364.81
2018-06-17T05:54:33.686Z,93372.66
2018-06-17T05:57:02.530Z,93371.42
2018-06-17T05:59:31.303Z,93375.45
2018-06-17T06:02:00.196Z,93380.70
2018-06-17T06:04:29.489Z,93391.58
2018-06-17T06:06:58.281Z,93391.27
2018-06-17T06:09:27.142Z,93391.78
2018-06-17T06:11:56.120Z,93391.48
2018-06-17T06:14:24.925Z,93390.41
2018-06-17T06:16:53.750Z,93387.12
2018-06-17T06:19:22.580Z,93393.14
2018-06-17T06:21:51.427Z,93395.81
2018-06-17T06:24:20.328Z,93391.48
2018-06-17T06:26:49.502Z,93394.70
2018-06-17T06:29:18.346Z,93396.76
2018-06-17T06:31:47.176Z,93390.45
2018-06-17T06:34:16.173Z,93388.36
2018-06-17T06:36:44.927Z,93389.46
2018-06-17T06:39:13.715Z,93389.64
2018-06-17T06:41:42.667Z,93387.52
2018-06-17T06:44:11.504Z,93390.34
2018-06-17T06:46:40.356Z,93390.80
2018-06-17T06:49:09.312Z,93394.50
2018-06-17T06:51:38.121Z,93394.02
2018-06-17T06:54:06.988Z,93394.97
2018-06-17T06:56:36.211Z,93399.65
2018-06-17T06:59:05.078Z,93393.04
2018-06-17T07:01:44.869Z,93399.46
2018-06-17T07:04:24.618Z,93394.98
2018-06-17T07:07:04.604Z,93394.20
2018-06-17T07:09:44.975Z,93396.59
2018-06-17T07:12:13.960Z,93398.23
2018-06-17T07:14:42.796Z,93391.03
2018-06-17T07:17:22.635Z,93393.30
2018-06-17T07:19:51.458Z,93395.66
2018-06-17T07:22:20.380Z,93393.16
2018-06-17T07:24:49.316Z,93397.08
2018-06-17T07:27:28.914Z,93395.79
2018-06-17T07:29:57.735Z,93395.06
2018-06-17T07:32:26.604Z,93389.81
2018-06-17T07:34:55.497Z,93392.98
2018-06-17T07:37:24.410Z,93398.41
2018-06-17T07:40:56.816Z,93391.20
2018-06-17T07:43:25.840Z,93396.31
2018-06-17T07:45:54.747Z,93397.67
2018-06-17T07:49:40.901Z,93401.05
2018-06-17T07:52:21.142Z,93405.73
2018-06-17T07:54:50.359Z,93404.47
2018-06-17T07:57:20.510Z,93402.09
2018-06-17T07:59:49.307Z,93404.91
2018-06-17T08:02:18.522Z,93409.48
2018-06-17T08:04:47.388Z,93404.11
2018-06-17T08:07:16.241Z,93396.79
2018-06-17T08:09:45.497Z,93399.36
2018-06-17T08:12:14.518Z,93395.78
2018-06-17T08:14:43.361Z,93396.53
2018-06-17T08:17:12.290Z,93396.73
2018-06-17T08:19:41.586Z,93396.55
2018-06-17T08:22:10.370Z,93400.45
2018-06-17T08:24:39.378Z,93395.80
2018-06-17T08:27:08.255Z,93398.84
2018-06-17T08:29:37.128Z,93394.34
2018-06-17T08:32:06.204Z,93388.16
2018-06-17T08:34:34.991Z,93398.08
2018-06-17T08:37:03.793Z,93392.02
2018-06-17T08:39:33.016Z,93391.98
2018-06-17T08:42:01.800Z,93392.39
2018-06-17T08:44:30.691Z,93389.31
2018-06-17T08:46:59.614Z,93384.09
2018-06-17T08:49:28.456Z,93381.77
2018-06-17T08:51:57.274Z,93380.16
2018-06-17T08:54:26.352Z,93379.69
2018-06-17T08:56:55.131Z,93377.91
2018-06-17T08:59:23.928Z,93383.33
2018-06-17T09:01:52.779Z,93385.40
2018-06-17T09:04:21.627Z,93378.37
2018-06-17T09:06:50.409Z,93377.08
2018-06-17T09:09:19.262Z,93371.22
2018-06-17T09:11:48.114Z,93367.09
2018-06-17T09:14:16.894Z,93367.15
2018-06-17T09:16:46.179Z,93363.03
2018-06-17T09:19:15.008Z,93355.78
2018-06-17T09:21:43.869Z,93355.01
2018-06-17T09:24:13.142Z,93346.61
2018-06-17T09:26:42.013Z,93345.36
2018-06-17T09:29:10.804Z,93347.80
2018-06-17T09:31:39.701Z,93345.58
2018-06-17T09:34:08.546Z,93338.81
2018-06-17T09:36:37.364Z,93333.03
2018-06-17T09:39:08.406Z,93335.00
2018-06-17T09:41:37.220Z,93331.20
2018-06-17T09:44:06.046Z,93330.88
2018-06-17T09:46:34.907Z,93327.95
2018-06-17T09:49:03.761Z,93316.08
2018-06-17T09:51:32.620Z,93312.55
2018-06-17T09:54:01.461Z,93315.59
2018-06-17T09:56:30.258Z,93317.81
2018-06-17T09:58:59.075Z,93317.05
2018-06-17T10:01:28.119Z,93319.77
2018-06-17T10:03:56.894Z,93315.09
2018-06-17T10:06:25.847Z,93316.39
2018-06-17T10:08:54.691Z,93320.27
2018-06-17T10:11:23.525Z,93315.77
2018-06-17T10:13:52.460Z,93320.17
2018-06-17T10:16:21.466Z,93318.58
2018-06-17T10:18:50.298Z,93321.33
2018-06-17T10:21:19.157Z,93320.55
2018-06-17T10:23:48.136Z,93316.07
2018-06-17T10:26:16.975Z,93312.06
2018-06-17T10:28:45.853Z,93311.20
2018-06-17T10:31:14.741Z,93310.34
2018-06-17T10:33:43.589Z,93305.62
2018-06-17T10:36:12.404Z,93299.20
2018-06-17T10:38:41.371Z,93299.19
2018-06-17T10:41:10.228Z,93294.84
2018-06-17T10:43:39.075Z,93289.74
2018-06-17T10:46:08.166Z,93291.59
2018-06-17T10:48:36.989Z,93287.13
2018-06-17T10:51:05.872Z,93287.16
2018-06-17T10:53:35.060Z,93289.70
2018-06-17T10:56:04.017Z,93292.33
2018-06-17T10:58:32.731Z,93285.72
2018-06-17T11:01:01.562Z,93301.42
2018-06-17T11:03:30.380Z,93285.41
2018-06-17T11:05:59.185Z,93295.16
2018-06-17T11:08:28.152Z,93294.81
2018-06-17T11:10:56.969Z,93288.72
2018-06-17T11:13:25.780Z,93292.61
2018-06-17T11:15:55.001Z,93299.42
2018-06-17T11:18:23.854Z,93298.30
2018-06-17T11:20:52.896Z,93307.73
2018-06-17T11:23:21.764Z,93316.91
2018-06-17T11:25:50.618Z,93335.81
2018-06-17T11:28:19.427Z,93326.07
2018-06-17T11:30:48.370Z,93313.61
2018-06-17T11:33:17.226Z,93313.09
2018-06-17T11:35:46.072Z,93307.72
2018-06-17T11:38:14.930Z,93309.62
2018-06-17T11:40:43.708Z,93313.72
2018-06-17T11:43:12.532Z,93314.68
2018-06-17T11:45:41.524Z,93318.08
2018-06-17T11:48:10.327Z,93318.55
2018-06-17T11:50:39.127Z,93319.22
2018-06-17T11:53:08.132Z,93317.55
2018-06-17T11:55:36.945Z,93317.47
2018-06-17T11:58:05.867Z,93313.52
2018-06-17T12:00:34.761Z,93317.62
2018-06-17T12:03:03.636Z,93305.84
2018-06-17T12:05:32.424Z,93307.19
2018-06-17T12:08:01.320Z,93309.45
2018-06-17T12:10:30.117Z,93304.56
2018-06-17T12:12:58.967Z,93304.48
2018-06-17T12:15:28.221Z,93303.91
2018-06-17T12:17:57.106Z,93304.02
2018-06-17T12:20:25.933Z,93301.97
2018-06-17T12:22:54.932Z,93296.33
2018-06-17T12:25:23.846Z,93298.89
2018-06-17T12:27:52.632Z,93291.88
2018-06-17T12:30:21.671Z,93290.55
2018-06-17T12:32:50.570Z,93283.86
2018-06-17T12:35:19.395Z,93282.89
2018-06-17T12:37:48.517Z,93277.81
2018-06-17T12:40:17.330Z,93273.84
2018-06-17T12:42:46.122Z,93272.47
2018-06-17T12:45:14.990Z,93273.11
2018-06-17T12:47:43.809Z,93272.69
2018-06-17T12:50:12.644Z,93271.61
2018-06-17T12:52:41.563Z,93264.95
2018-06-17T12:55:10.354Z,93267.81
2018-06-17T12:57:39.234Z,93268.86
2018-06-17T13:00:08.567Z,93267.48
2018-06-17T13:02:37.385Z,93262.56
2018-06-17T13:05:06.461Z,93258.19
2018-06-17T13:07:35.439Z,93263.86
2018-06-17T13:10:04.349Z,93259.90
2018-06-17T13:12:33.162Z,93258.00
2018-06-17T13:15:02.031Z,93263.93
2018-06-17T13:17:30.883Z,93262.70
2018-06-17T13:19:59.741Z,93259.05
2018-06-17T13:22:28.676Z,93256.73
2018-06-17T13:24:57.753Z,93256.52
2018-06-17T13:27:26.726Z,93246.42
2018-06-17T13:29:55.756Z,93237.58
2018-06-17T13:32:24.616Z,93232.10
2018-06-17T13:34:53.410Z,93231.61
2018-06-17T13:37:22.380Z,93240.00
2018-06-17T13:39:51.315Z,93246.30
2018-06-17T13:42:20.155Z,93249.66
2018-06-17T13:44:49.119Z,93256.69
2018-06-17T13:47:18.089Z,93268.98
2018-06-17T13:49:46.903Z,93275.66
2018-06-17T13:52:16.163Z,93276.19
2018-06-17T13:54:45.007Z,93279.45
2018-06-17T13:57:13.861Z,93284.98
2018-06-17T13:59:42.715Z,93281.78
2018-06-17T14:02:11.561Z,93281.86
2018-06-17T14:04:40.408Z,93297.81
2018-06-17T14:07:09.551Z,93305.66
2018-06-17T14:09:38.471Z,93300.49
2018-06-17T14:12:07.580Z,93291.50
2018-06-17T14:14:36.628Z,93287.58
2018-06-17T14:17:05.616Z,93280.45
2018-06-17T14:19:34.491Z,93286.15
2018-06-17T14:22:03.925Z,93289.45
2018-06-17T14:24:32.843Z,93287.41
2018-06-17T14:27:01.754Z,93288.36
2018-06-17T14:29:30.783Z,93293.33
2018-06-17T14:31:59.693Z,93294.99
2018-06-17T14:34:28.562Z,93295.56
2018-06-17T14:36:57.712Z,93301.02
2018-06-17T14:39:26.548Z,93293.89
2018-06-17T14:42:00.753Z,93298.22
2018-06-17T14:44:34.601Z,93293.00
2018-06-17T14:47:08.732Z,93291.47
2018-06-17T14:49:42.726Z,93294.43
2018-06-17T14:52:16.663Z,93293.78
2018-06-17T14:54:45.489Z,93298.71
2018-06-17T14:57:14.427Z,93301.50
2018-06-17T14:59:43.315Z,93306.67
2018-06-17T15:02:12.171Z,93307.91
2018-06-17T15:04:41.033Z,93302.07
2018-06-17T15:07:10.239Z,93298.03
2018-06-17T15:09:39.234Z,93299.07
2018-06-17T15:12:08.375Z,93295.59
2018-06-17T15:14:37.716Z,93285.44
2018-06-17T15:17:07.064Z,93285.63
2018-06-17T15:19:36.005Z,93290.95
2018-06-17T15:22:05.118Z,93285.86
2018-06-17T15:24:33.991Z,93294.19
2018-06-17T15:27:02.898Z,93306.30
2018-06-17T15:29:32.041Z,93297.36
2018-06-17T15:32:06.109Z,93305.73
2018-06-17T15:34:40.008Z,93302.28
2018-06-17T15:37:13.913Z,93301.55
2018-06-17T15:39:47.778Z,93302.44
2018-06-17T15:42:16.609Z,93309.77
2018-06-17T15:44:45.553Z,93316.55
2018-06-17T15:47:14.414Z,93312.95
2018-06-17T15:49:43.229Z,93316.09
2018-06-17T15:52:12.154Z,93319.24
2018-06-17T15:54:41.217Z,93320.75
2018-06-17T15:57:10.071Z,93310.13
2018-06-17T15:59:38.964Z,93317.92
2018-06-17T16:02:08.034Z,93311.98
2018-06-17T16:04:36.873Z,93315.86
2018-06-17T16:07:05.825Z,93324.39
2018-06-17T16:09:34.813Z,93330.73
2018-06-17T16:12:08.689Z,93335.62
2018-06-17T16:14:42.768Z,93347.20
2018-06-17T16:17:16.757Z,93350.22
2018-06-17T16:19:50.614Z,93359.69
2018-06-17T16:22:19.486Z,93360.22
2018-06-17T16:24:48.925Z,93367.64
2018-06-17T16:27:18.023Z,93372.59
2018-06-17T16:29:46.876Z,93376.20
2018-06-17T16:32:15.794Z,93376.72
2018-06-17T16:34:45.016Z,93378.61
2018-06-17T16:37:13.853Z,93378.73
2018-06-17T16:39:42.704Z,93381.02
2018-06-17T16:42:12.241Z,93383.64
2018-06-17T16:44:41.169Z,93388.65
2018-06-17T16:47:10.093Z,93385.88
2018-06-17T16:49:38.995Z,93383.74
2018-06-17T16:52:12.955Z,93388.98
2018-06-17T16:54:47.064Z,93377.20
2018-06-17T16:57:20.907Z,93376.97
2018-06-17T16:59:58.524Z,93370.77
2018-06-17T17:02:27.424Z,93378.80
2018-06-17T17:04:56.720Z,93386.01
2018-06-17T17:07:25.724Z,93393.54
2018-06-17T17:09:54.670Z,93399.56
2018-06-17T17:12:23.650Z,93406.98
2018-06-17T17:14:52.754Z,93408.03
2018-06-17T17:17:21.676Z,93402.82
2018-06-17T17:19:50.546Z,93413.00
2018-06-17T17:22:19.477Z,93410.13
2018-06-17T17:24:48.403Z,93406.75
2018-06-17T17:27:17.209Z,93405.70
2018-06-17T17:29:46.151Z,93399.91
2018-06-17T17:32:20.003Z,93391.47
2018-06-17T17:34:54.350Z,93383.73
2018-06-17T17:37:28.229Z,93375.84
2018-06-17T17:40:02.185Z,93371.23
2018-06-17T17:42:31.024Z,93367.76
2018-06-17T17:45:05.240Z,93377.00
2018-06-17T17:47:34.768Z,93378.73
2018-06-17T17:50:03.865Z,93379.89
2018-06-17T17:52:32.831Z,93382.89
2018-06-17T17:55:01.867Z,93385.56
2018-06-17T17:57:30.825Z,93382.89
2018-06-17T17:59:59.815Z,93383.33
2018-06-17T18:02:28.794Z,93390.27
2018-06-17T18:04:57.737Z,93394.53
2018-06-17T18:07:26.776Z,93397.53
2018-06-17T18:09:55.825Z,93397.05
2018-06-17T18:12:24.749Z,93400.85
2018-06-17T18:14:53.673Z,93397.62
2018-06-17T18:17:22.625Z,93404.09
2018-06-17T18:19:51.727Z,93407.27
2018-06-17T18:22:20.836Z,93411.08
2018-06-17T18:24:54.821Z,93411.20
2018-06-17T18:27:29.150Z,93414.39
2018-06-17T18:30:03.021Z,93415.41
2018-06-17T18:32:37.043Z,93417.02
2018-06-17T18:35:10.986Z,93417.79
2018-06-17T18:50:29.633Z,93423.80
2018-06-17T18:52:58.544Z,93419.52
2018-06-17T18:55:27.428Z,93417.28
2018-06-17T18:57:56.613Z,93416.22
2018-06-17T19:00:25.464Z,93409.17
2018-06-17T19:02:54.458Z,93417.02
2018-06-17T19:05:23.540Z,93415.49
2018-06-17T19:07:52.405Z,93412.00
2018-06-17T19:10:26.651Z,93407.30
2018-06-17T19:13:00.628Z,93409.47
2018-06-17T19:15:34.671Z,93408.63
2018-06-17T19:18:06.427Z,93415.48
2018-06-17T19:20:42.141Z,93416.81
2018-06-17T19:23:11.081Z,93418.96
2018-06-17T19:25:39.913Z,93418.78
2018-06-17T19:28:08.813Z,93417.89
2018-06-17T19:30:37.659Z,93420.14
2018-06-17T19:33:06.520Z,93422.28
2018-06-17T19:35:35.397Z,93428.70
2018-06-17T19:38:04.348Z,93428.78
2018-06-17T19:40:33.173Z,93432.97
2018-06-17T19:43:02.125Z,93429.73
2018-06-17T19:45:31.068Z,93437.75
2018-06-17T19:47:59.939Z,93439.95
2018-06-17T19:50:34.994Z,93439.77
2018-06-17T19:53:08.993Z,93445.63
2018-06-17T19:55:43.061Z,93445.11
2018-06-17T19:58:17.095Z,93448.09
2018-06-17T20:00:47.772Z,93458.89
2018-06-17T20:03:16.563Z,93458.38
2018-06-17T20:05:45.444Z,93462.47
2018-06-17T20:08:14.462Z,93465.30
2018-06-17T20:10:43.284Z,93471.64
2018-06-17T20:13:12.089Z,93467.13
2018-06-17T20:15:41.063Z,93466.55
2018-06-17T20:18:10.423Z,93467.63
2018-06-17T20:20:39.287Z,93462.12
2018-06-17T20:23:08.141Z,93458.31
2018-06-17T20:25:36.994Z,93448.00
2018-06-17T20:28:05.864Z,93451.61
2018-06-17T20:30:34.685Z,93453.33
2018-06-17T20:33:08.420Z,93455.04
2018-06-17T20:35:42.488Z,93458.20
2018-06-17T20:38:16.423Z,93457.58
2018-06-17T20:40:50.301Z,93454.86
2018-06-17T20:43:24.171Z,93462.86
2018-06-17T20:45:53.004Z,93464.28
2018-06-17T20:48:21.805Z,93470.34
2018-06-17T20:50:50.626Z,93468.84
2018-06-17T20:53:19.608Z,93472.09
2018-06-17T20:55:48.410Z,93474.99
2018-06-17T20:58:17.272Z,93466.77
2018-06-17T21:00:46.125Z,93470.83
2018-06-17T21:03:15.078Z,93468.63
2018-06-17T21:05:43.854Z,93461.95
2018-06-17T21:08:12.894Z,93461.03
2018-06-17T21:10:41.688Z,93455.70
2018-06-17T21:13:10.482Z,93452.38
2018-06-17T21:15:39.685Z,93448.21
2018-06-17T21:18:08.473Z,93450.63
2018-06-17T21:20:42.702Z,93443.70
2018-06-17T21:23:16.551Z,93450.63
2018-06-17T21:25:50.564Z,93440.72
2018-06-17T21:28:19.356Z,93440.00
2018-06-17T21:30:48.146Z,93440.08
2018-06-17T21:33:16.964Z,93441.91
2018-06-17T21:35:45.767Z,93442.34
2018-06-17T21:38:14.543Z,93444.98
2018-06-17T21:40:43.488Z,93445.91
2018-06-17T21:43:12.297Z,93435.25
2018-06-17T21:45:41.179Z,93436.86
2018-06-17T21:48:10.180Z,93435.70
2018-06-17T21:50:38.935Z,93429.48
2018-06-17T21:53:07.759Z,93439.05
2018-06-17T21:55:36.903Z,93429.32
2018-06-17T21:58:05.655Z,93426.86
2018-06-17T22:00:34.496Z,93424.63
2018-06-17T22:03:03.721Z,93423.83
2018-06-17T22:05:32.568Z,93418.61
2018-06-17T22:08:06.415Z,93421.22
2018-06-17T22:10:40.316Z,93423.56
2018-06-17T22:13:09.110Z,93421.77
2018-06-17T22:15:42.932Z,93416.91
2018-06-17T22:18:11.808Z,93413.83
2018-06-17T22:20:40.639Z,93416.59
2018-06-17T22:23:09.437Z,93409.66
2018-06-17T22:25:38.234Z,93410.59
2018-06-17T22:28:07.007Z,93411.59
2018-06-17T22:30:35.789Z,93409.69
2018-06-17T22:33:04.849Z,93402.56
2018-06-17T22:35:33.611Z,93402.85
2018-06-17T22:38:02.468Z,93404.74
2018-06-17T22:40:31.436Z,93406.11
2018-06-17T22:43:00.228Z,93409.20
2018-06-17T22:45:29.046Z,93410.30
2018-06-17T22:47:58.031Z,93409.48
2018-06-17T22:50:26.809Z,93406.23
2018-06-17T22:53:06.552Z,93411.41
2018-06-17T22:55:35.327Z,93408.95
2018-06-17T22:58:09.415Z,93408.68
2018-06-17T23:00:43.308Z,93412.95
2018-06-17T23:03:17.392Z,93421.88
2018-06-17T23:05:51.252Z,93417.20
2018-06-17T23:08:25.171Z,93416.64
2018-06-17T23:10:54.042Z,93418.91
2018-06-17T23:13:22.878Z,93424.96
2018-06-17T23:15:51.715Z,93424.25
2018-06-17T23:18:20.476Z,93417.20
2018-06-17T23:20:49.288Z,93416.66
2018-06-17T23:23:18.425Z,93413.52
2018-06-17T23:25:47.300Z,93412.42
2018-06-17T23:28:16.041Z,93406.55
2018-06-17T23:30:44.998Z,93395.37
2018-06-17T23:33:13.719Z,93388.67
2018-06-17T23:35:42.486Z,93384.70
2018-06-17T23:38:11.591Z,93384.70
2018-06-17T23:40:40.364Z,93381.80
2018-06-17T23:43:09.225Z,93384.61
2018-06-17T23:45:42.102Z,93375.52
2018-06-17T23:48:16.108Z,93380.85
2018-06-17T23:52:56.242Z,93377.33
2018-06-17T23:55:30.068Z,93380.85
2018-06-17T23:57:59.092Z,93377.13
